sensor_id;sensor_type;location;lat;lon;timestamp;pressure;altitude;pressure_sealevel;temperature;humidity
1401;BME280;46518;48.842;8.926;2023-09-19T00:02:17;96728.78;;;17.22;94.64
1401;BME280;46518;48.842;8.926;2023-09-19T00:04:46;96733.91;;;17.19;95.41
1401;BME280;46518;48.842;8.926;2023-09-19T00:07:15;96738.03;;;17.11;95.96
1401;BME280;46518;48.842;8.926;2023-09-19T00:09:44;96739.72;;;17.07;96.49
1401;BME280;46518;48.842;8.926;2023-09-19T00:12:13;96751.44;;;17.06;96.95
1401;BME280;46518;48.842;8.926;2023-09-19T00:14:42;96750.25;;;17.12;96.57
1401;BME280;46518;48.842;8.926;2023-09-19T00:17:11;96749.19;;;17.13;96.83
1401;BME280;46518;48.842;8.926;2023-09-19T00:19:39;96746.41;;;17.04;97.43
1401;BME280;46518;48.842;8.926;2023-09-19T00:22:09;96754.38;;;17.18;97.10
1401;BME280;46518;48.842;8.926;2023-09-19T00:24:40;96735.59;;;17.15;96.70
1401;BME280;46518;48.842;8.926;2023-09-19T00:27:08;96752.44;;;17.10;96.83
1401;BME280;46518;48.842;8.926;2023-09-19T00:29:36;96756.16;;;17.23;97.01
1401;BME280;46518;48.842;8.926;2023-09-19T00:32:07;96757.94;;;17.14;96.13
1401;BME280;46518;48.842;8.926;2023-09-19T00:34:36;96754.00;;;17.11;95.58
1401;BME280;46518;48.842;8.926;2023-09-19T00:37:05;96754.78;;;17.12;95.59
1401;BME280;46518;48.842;8.926;2023-09-19T00:39:33;96766.31;;;17.21;94.76
1401;BME280;46518;48.842;8.926;2023-09-19T00:42:02;96762.47;;;17.13;94.75
1401;BME280;46518;48.842;8.926;2023-09-19T00:44:32;96761.09;;;17.16;94.54
1401;BME280;46518;48.842;8.926;2023-09-19T00:47:01;96765.72;;;17.24;94.17
1401;BME280;46518;48.842;8.926;2023-09-19T00:49:30;96759.13;;;17.35;92.67
1401;BME280;46518;48.842;8.926;2023-09-19T00:52:01;96763.84;;;17.38;93.53
1401;BME280;46518;48.842;8.926;2023-09-19T00:54:31;96761.97;;;17.39;91.99
1401;BME280;46518;48.842;8.926;2023-09-19T00:57:00;96762.34;;;17.32;92.01
1401;BME280;46518;48.842;8.926;2023-09-19T00:59:29;96757.72;;;17.24;93.21
1401;BME280;46518;48.842;8.926;2023-09-19T01:01:58;96762.88;;;17.20;93.42
1401;BME280;46518;48.842;8.926;2023-09-19T01:04:27;96762.75;;;17.25;92.57
1401;BME280;46518;48.842;8.926;2023-09-19T01:06:56;96764.00;;;17.42;93.37
1401;BME280;46518;48.842;8.926;2023-09-19T01:09:27;96771.13;;;17.33;92.29
1401;BME280;46518;48.842;8.926;2023-09-19T01:11:58;96774.47;;;17.38;93.01
1401;BME280;46518;48.842;8.926;2023-09-19T01:14:34;96774.38;;;17.30;92.07
1401;BME280;46518;48.842;8.926;2023-09-19T01:17:12;96783.25;;;17.39;92.26
1401;BME280;46518;48.842;8.926;2023-09-19T01:20:07;96783.31;;;17.61;91.26
1401;BME280;46518;48.842;8.926;2023-09-19T01:22:46;96788.00;;;17.78;89.08
1401;BME280;46518;48.842;8.926;2023-09-19T01:25:48;96790.56;;;17.69;88.08
1401;BME280;46518;48.842;8.926;2023-09-19T01:28:30;96790.03;;;17.45;89.46
1401;BME280;46518;48.842;8.926;2023-09-19T01:31:09;96792.53;;;17.28;90.67
1401;BME280;46518;48.842;8.926;2023-09-19T01:33:55;96791.44;;;17.15;91.72
1401;BME280;46518;48.842;8.926;2023-09-19T01:36:30;96790.25;;;17.21;92.05
1401;BME280;46518;48.842;8.926;2023-09-19T01:39:01;96801.19;;;17.06;92.47
1401;BME280;46518;48.842;8.926;2023-09-19T01:41:45;96797.34;;;17.25;92.93
1401;BME280;46518;48.842;8.926;2023-09-19T01:44:23;96803.34;;;17.31;91.76
1401;BME280;46518;48.842;8.926;2023-09-19T01:46:57;96806.22;;;17.35;90.89
1401;BME280;46518;48.842;8.926;2023-09-19T01:49:32;96808.34;;;17.60;90.59
1401;BME280;46518;48.842;8.926;2023-09-19T01:52:08;96808.03;;;17.62;89.44
1401;BME280;46518;48.842;8.926;2023-09-19T01:54:46;96810.72;;;17.48;88.88
1401;BME280;46518;48.842;8.926;2023-09-19T01:57:28;96817.31;;;17.37;89.78
1401;BME280;46518;48.842;8.926;2023-09-19T02:00:01;96816.25;;;17.38;90.82
1401;BME280;46518;48.842;8.926;2023-09-19T02:02:43;96815.94;;;17.39;89.74
1401;BME280;46518;48.842;8.926;2023-09-19T02:05:13;96823.91;;;17.39;89.75
1401;BME280;46518;48.842;8.926;2023-09-19T02:07:41;96823.34;;;17.42;88.97
1401;BME280;46518;48.842;8.926;2023-09-19T02:10:11;96825.31;;;17.37;89.19
1401;BME280;46518;48.842;8.926;2023-09-19T02:12:51;96813.19;;;17.44;88.74
1401;BME280;46518;48.842;8.926;2023-09-19T02:15:20;96821.84;;;17.36;89.01
1401;BME280;46518;48.842;8.926;2023-09-19T02:17:50;96818.13;;;17.23;89.92
1401;BME280;46518;48.842;8.926;2023-09-19T02:20:18;96822.75;;;17.18;90.67
1401;BME280;46518;48.842;8.926;2023-09-19T02:22:48;96818.91;;;17.38;90.85
1401;BME280;46518;48.842;8.926;2023-09-19T02:25:19;96823.91;;;17.67;89.38
1401;BME280;46518;48.842;8.926;2023-09-19T02:27:48;96825.47;;;17.82;88.48
1401;BME280;46518;48.842;8.926;2023-09-19T02:30:16;96828.72;;;17.79;87.37
1401;BME280;46518;48.842;8.926;2023-09-19T02:32:47;96834.06;;;17.93;87.17
1401;BME280;46518;48.842;8.926;2023-09-19T02:35:18;96837.56;;;18.02;86.54
1401;BME280;46518;48.842;8.926;2023-09-19T02:37:46;96831.78;;;17.86;85.64
1401;BME280;46518;48.842;8.926;2023-09-19T02:40:15;96835.13;;;17.92;85.51
1401;BME280;46518;48.842;8.926;2023-09-19T02:42:47;96840.84;;;17.71;86.77
1401;BME280;46518;48.842;8.926;2023-09-19T02:45:16;96845.78;;;17.92;85.78
1401;BME280;46518;48.842;8.926;2023-09-19T02:47:48;96842.03;;;17.79;85.88
1401;BME280;46518;48.842;8.926;2023-09-19T02:50:18;96843.44;;;17.62;87.53
1401;BME280;46518;48.842;8.926;2023-09-19T02:52:47;96847.78;;;17.58;88.15
1401;BME280;46518;48.842;8.926;2023-09-19T02:55:18;96853.50;;;17.38;89.69
1401;BME280;46518;48.842;8.926;2023-09-19T02:57:49;96853.59;;;17.33;90.79
1401;BME280;46518;48.842;8.926;2023-09-19T03:00:20;96845.00;;;17.50;91.16
1401;BME280;46518;48.842;8.926;2023-09-19T03:02:49;96847.97;;;17.48;90.75
1401;BME280;46518;48.842;8.926;2023-09-19T03:05:20;96860.56;;;17.56;91.15
1401;BME280;46518;48.842;8.926;2023-09-19T03:07:50;96848.28;;;17.33;91.84
1401;BME280;46518;48.842;8.926;2023-09-19T03:10:20;96854.47;;;17.42;91.13
1401;BME280;46518;48.842;8.926;2023-09-19T03:12:49;96863.81;;;17.39;92.30
1401;BME280;46518;48.842;8.926;2023-09-19T03:15:18;96861.97;;;17.40;93.96
1401;BME280;46518;48.842;8.926;2023-09-19T03:17:49;96874.97;;;17.55;94.47
1401;BME280;46518;48.842;8.926;2023-09-19T03:20:22;96883.41;;;17.30;95.75
1401;BME280;46518;48.842;8.926;2023-09-19T03:22:50;96876.47;;;17.48;95.41
1401;BME280;46518;48.842;8.926;2023-09-19T03:25:20;96874.38;;;17.31;97.56
1401;BME280;46518;48.842;8.926;2023-09-19T03:27:51;96882.91;;;17.14;99.84
1401;BME280;46518;48.842;8.926;2023-09-19T03:30:22;96881.81;;;17.01;100.00
1401;BME280;46518;48.842;8.926;2023-09-19T03:32:50;96874.50;;;16.93;100.00
1401;BME280;46518;48.842;8.926;2023-09-19T03:35:19;96878.72;;;16.80;100.00
1401;BME280;46518;48.842;8.926;2023-09-19T03:37:49;96870.75;;;16.80;100.00
1401;BME280;46518;48.842;8.926;2023-09-19T03:40:20;96873.22;;;16.90;100.00
1401;BME280;46518;48.842;8.926;2023-09-19T03:42:50;96884.59;;;17.23;100.00
1401;BME280;46518;48.842;8.926;2023-09-19T03:45:18;96876.66;;;16.91;100.00
1401;BME280;46518;48.842;8.926;2023-09-19T03:47:50;96875.56;;;16.78;100.00
1401;BME280;46518;48.842;8.926;2023-09-19T03:50:21;96877.66;;;16.95;100.00
1401;BME280;46518;48.842;8.926;2023-09-19T03:52:56;96871.13;;;16.87;100.00
1401;BME280;46518;48.842;8.926;2023-09-19T03:55:24;96870.28;;;16.73;100.00
1401;BME280;46518;48.842;8.926;2023-09-19T03:57:53;96867.41;;;16.69;100.00
1401;BME280;46518;48.842;8.926;2023-09-19T04:00:22;96867.41;;;16.69;100.00
1401;BME280;46518;48.842;8.926;2023-09-19T04:02:53;96867.00;;;16.81;100.00
1401;BME280;46518;48.842;8.926;2023-09-19T04:05:23;96867.59;;;16.92;100.00
1401;BME280;46518;48.842;8.926;2023-09-19T04:07:53;96867.03;;;16.76;100.00
1401;BME280;46518;48.842;8.926;2023-09-19T04:10:21;96874.22;;;16.75;100.00
1401;BME280;46518;48.842;8.926;2023-09-19T04:12:52;96871.53;;;16.80;100.00
1401;BME280;46518;48.842;8.926;2023-09-19T04:15:22;96871.69;;;17.03;100.00
1401;BME280;46518;48.842;8.926;2023-09-19T04:17:53;96881.13;;;17.09;100.00
1401;BME280;46518;48.842;8.926;2023-09-19T04:20:21;96874.25;;;17.08;100.00
1401;BME280;46518;48.842;8.926;2023-09-19T04:22:52;96888.81;;;17.11;100.00
1401;BME280;46518;48.842;8.926;2023-09-19T04:25:21;96874.94;;;17.00;100.00
1401;BME280;46518;48.842;8.926;2023-09-19T04:27:50;96884.06;;;16.94;100.00
1401;BME280;46518;48.842;8.926;2023-09-19T04:30:18;96884.03;;;16.80;100.00
1401;BME280;46518;48.842;8.926;2023-09-19T04:32:48;96890.19;;;16.75;100.00
1401;BME280;46518;48.842;8.926;2023-09-19T04:35:18;96896.72;;;16.64;100.00
1401;BME280;46518;48.842;8.926;2023-09-19T04:37:47;96895.88;;;16.50;100.00
1401;BME280;46518;48.842;8.926;2023-09-19T04:40:17;96905.56;;;16.41;100.00
1401;BME280;46518;48.842;8.926;2023-09-19T04:42:53;96898.53;;;16.31;100.00
1401;BME280;46518;48.842;8.926;2023-09-19T04:45:22;96909.31;;;16.21;100.00
1401;BME280;46518;48.842;8.926;2023-09-19T04:47:51;96905.44;;;16.13;100.00
1401;BME280;46518;48.842;8.926;2023-09-19T04:50:20;96913.19;;;16.28;100.00
1401;BME280;46518;48.842;8.926;2023-09-19T04:52:50;96922.13;;;16.32;100.00
1401;BME280;46518;48.842;8.926;2023-09-19T04:55:20;96924.59;;;16.29;100.00
1401;BME280;46518;48.842;8.926;2023-09-19T04:57:49;96932.34;;;16.44;100.00
1401;BME280;46518;48.842;8.926;2023-09-19T05:00:20;96943.59;;;16.17;100.00
1401;BME280;46518;48.842;8.926;2023-09-19T05:02:52;96945.06;;;15.85;100.00
1401;BME280;46518;48.842;8.926;2023-09-19T05:05:20;96951.31;;;15.70;100.00
1401;BME280;46518;48.842;8.926;2023-09-19T05:07:49;96953.75;;;15.62;100.00
1401;BME280;46518;48.842;8.926;2023-09-19T05:10:22;96956.47;;;15.57;100.00
1401;BME280;46518;48.842;8.926;2023-09-19T05:12:53;96953.34;;;15.49;100.00
1401;BME280;46518;48.842;8.926;2023-09-19T05:15:21;96951.47;;;15.50;100.00
1401;BME280;46518;48.842;8.926;2023-09-19T05:17:51;96958.69;;;15.44;100.00
1401;BME280;46518;48.842;8.926;2023-09-19T05:20:24;96965.22;;;15.28;100.00
1401;BME280;46518;48.842;8.926;2023-09-19T05:23:00;96955.72;;;15.22;100.00
1401;BME280;46518;48.842;8.926;2023-09-19T05:25:31;96960.97;;;15.27;100.00
1401;BME280;46518;48.842;8.926;2023-09-19T05:28:00;96969.06;;;15.12;100.00
1401;BME280;46518;48.842;8.926;2023-09-19T05:30:31;96964.50;;;15.17;100.00
1401;BME280;46518;48.842;8.926;2023-09-19T05:33:00;96969.97;;;14.97;100.00
1401;BME280;46518;48.842;8.926;2023-09-19T05:35:29;96979.28;;;14.94;100.00
1401;BME280;46518;48.842;8.926;2023-09-19T05:37:58;96977.75;;;14.88;100.00
1401;BME280;46518;48.842;8.926;2023-09-19T05:40:26;96987.22;;;14.94;100.00
1401;BME280;46518;48.842;8.926;2023-09-19T05:42:56;96995.94;;;14.95;100.00
1401;BME280;46518;48.842;8.926;2023-09-19T05:45:25;96993.38;;;14.84;100.00
1401;BME280;46518;48.842;8.926;2023-09-19T05:47:54;97003.53;;;14.72;100.00
1401;BME280;46518;48.842;8.926;2023-09-19T05:50:28;96996.63;;;14.76;100.00
1401;BME280;46518;48.842;8.926;2023-09-19T05:52:56;97002.41;;;14.83;100.00
1401;BME280;46518;48.842;8.926;2023-09-19T05:55:25;97005.34;;;14.77;100.00
1401;BME280;46518;48.842;8.926;2023-09-19T05:57:53;97014.34;;;14.81;100.00
1401;BME280;46518;48.842;8.926;2023-09-19T06:00:24;97009.34;;;14.74;100.00
1401;BME280;46518;48.842;8.926;2023-09-19T06:02:55;97013.09;;;14.68;100.00
1401;BME280;46518;48.842;8.926;2023-09-19T06:05:25;97023.91;;;14.77;100.00
1401;BME280;46518;48.842;8.926;2023-09-19T06:07:54;97024.34;;;14.89;100.00
1401;BME280;46518;48.842;8.926;2023-09-19T06:10:27;97021.38;;;15.01;100.00
1401;BME280;46518;48.842;8.926;2023-09-19T06:12:56;97026.84;;;15.09;100.00
1401;BME280;46518;48.842;8.926;2023-09-19T06:15:26;97027.66;;;15.10;100.00
1401;BME280;46518;48.842;8.926;2023-09-19T06:17:55;97024.25;;;15.04;100.00
1401;BME280;46518;48.842;8.926;2023-09-19T06:20:25;97020.72;;;15.14;100.00
1401;BME280;46518;48.842;8.926;2023-09-19T06:22:54;97024.03;;;15.01;100.00
1401;BME280;46518;48.842;8.926;2023-09-19T06:25:22;97019.00;;;14.94;100.00
1401;BME280;46518;48.842;8.926;2023-09-19T06:27:52;97021.69;;;14.89;100.00
1401;BME280;46518;48.842;8.926;2023-09-19T06:30:22;97028.88;;;14.88;100.00
1401;BME280;46518;48.842;8.926;2023-09-19T06:32:57;97026.41;;;14.97;100.00
1401;BME280;46518;48.842;8.926;2023-09-19T06:35:26;97032.16;;;15.09;100.00
1401;BME280;46518;48.842;8.926;2023-09-19T06:37:54;97025.50;;;15.12;100.00
1401;BME280;46518;48.842;8.926;2023-09-19T06:40:25;97025.47;;;15.17;100.00
1401;BME280;46518;48.842;8.926;2023-09-19T06:42:55;97023.88;;;15.21;100.00
1401;BME280;46518;48.842;8.926;2023-09-19T06:45:23;97020.94;;;15.23;100.00
1401;BME280;46518;48.842;8.926;2023-09-19T06:47:54;97022.38;;;15.39;100.00
1401;BME280;46518;48.842;8.926;2023-09-19T06:50:27;97036.13;;;15.46;100.00
1401;BME280;46518;48.842;8.926;2023-09-19T06:52:58;97043.69;;;15.29;100.00
1401;BME280;46518;48.842;8.926;2023-09-19T06:55:26;97045.06;;;15.21;100.00
1401;BME280;46518;48.842;8.926;2023-09-19T06:57:59;97054.56;;;15.27;100.00
1401;BME280;46518;48.842;8.926;2023-09-19T07:00:28;97052.13;;;15.36;100.00
1401;BME280;46518;48.842;8.926;2023-09-19T07:02:59;97055.59;;;15.31;100.00
1401;BME280;46518;48.842;8.926;2023-09-19T07:05:36;97059.63;;;15.24;100.00
1401;BME280;46518;48.842;8.926;2023-09-19T07:08:07;97072.78;;;15.39;100.00
1401;BME280;46518;48.842;8.926;2023-09-19T07:10:36;97067.88;;;15.57;100.00
1401;BME280;46518;48.842;8.926;2023-09-19T07:13:05;97069.47;;;15.58;100.00
1401;BME280;46518;48.842;8.926;2023-09-19T07:15:37;97074.16;;;15.66;100.00
1401;BME280;46518;48.842;8.926;2023-09-19T07:18:08;97079.03;;;15.53;100.00
1401;BME280;46518;48.842;8.926;2023-09-19T07:20:40;97076.06;;;15.60;100.00
1401;BME280;46518;48.842;8.926;2023-09-19T07:23:17;97081.03;;;15.72;100.00
1401;BME280;46518;48.842;8.926;2023-09-19T07:25:46;97084.53;;;15.62;100.00
1401;BME280;46518;48.842;8.926;2023-09-19T07:28:16;97090.75;;;15.47;100.00
1401;BME280;46518;48.842;8.926;2023-09-19T07:30:44;97081.72;;;15.48;100.00
1401;BME280;46518;48.842;8.926;2023-09-19T07:33:32;97094.88;;;15.64;100.00
1401;BME280;46518;48.842;8.926;2023-09-19T07:36:02;97089.28;;;15.70;100.00
1401;BME280;46518;48.842;8.926;2023-09-19T07:38:31;97096.31;;;15.85;100.00
1401;BME280;46518;48.842;8.926;2023-09-19T07:41:00;97091.91;;;16.00;100.00
1401;BME280;46518;48.842;8.926;2023-09-19T07:43:29;97094.25;;;16.06;100.00
1401;BME280;46518;48.842;8.926;2023-09-19T07:46:03;97096.47;;;16.23;100.00
1401;BME280;46518;48.842;8.926;2023-09-19T07:48:33;97085.59;;;16.20;100.00
1401;BME280;46518;48.842;8.926;2023-09-19T07:51:04;97092.84;;;16.14;100.00
1401;BME280;46518;48.842;8.926;2023-09-19T07:53:34;97094.94;;;16.17;100.00
1401;BME280;46518;48.842;8.926;2023-09-19T07:56:03;97097.78;;;16.26;100.00
1401;BME280;46518;48.842;8.926;2023-09-19T07:58:32;97105.75;;;16.26;100.00
1401;BME280;46518;48.842;8.926;2023-09-19T08:01:03;97109.81;;;16.42;100.00
1401;BME280;46518;48.842;8.926;2023-09-19T08:03:31;97114.38;;;16.36;100.00
1401;BME280;46518;48.842;8.926;2023-09-19T08:06:00;97116.00;;;16.37;100.00
1401;BME280;46518;48.842;8.926;2023-09-19T08:08:30;97118.41;;;16.34;100.00
1401;BME280;46518;48.842;8.926;2023-09-19T08:10:58;97118.78;;;16.22;100.00
1401;BME280;46518;48.842;8.926;2023-09-19T08:13:28;97114.16;;;16.33;100.00
1401;BME280;46518;48.842;8.926;2023-09-19T08:16:01;97123.72;;;16.58;100.00
1401;BME280;46518;48.842;8.926;2023-09-19T08:18:29;97123.59;;;16.68;100.00
1401;BME280;46518;48.842;8.926;2023-09-19T08:20:57;97122.06;;;16.86;100.00
1401;BME280;46518;48.842;8.926;2023-09-19T08:23:31;97121.94;;;16.72;100.00
1401;BME280;46518;48.842;8.926;2023-09-19T08:25:59;97127.13;;;16.88;100.00
1401;BME280;46518;48.842;8.926;2023-09-19T08:28:34;97129.13;;;16.96;100.00
1401;BME280;46518;48.842;8.926;2023-09-19T08:31:03;97134.84;;;16.84;100.00
1401;BME280;46518;48.842;8.926;2023-09-19T08:33:33;97129.97;;;16.91;100.00
1401;BME280;46518;48.842;8.926;2023-09-19T08:36:06;97132.25;;;16.79;100.00
1401;BME280;46518;48.842;8.926;2023-09-19T08:38:37;97126.97;;;16.98;100.00
1401;BME280;46518;48.842;8.926;2023-09-19T08:41:07;97140.53;;;16.72;100.00
1401;BME280;46518;48.842;8.926;2023-09-19T08:43:35;97141.56;;;16.76;100.00
1401;BME280;46518;48.842;8.926;2023-09-19T08:46:10;97140.31;;;16.69;100.00
1401;BME280;46518;48.842;8.926;2023-09-19T08:48:45;97136.16;;;16.87;100.00
1401;BME280;46518;48.842;8.926;2023-09-19T08:51:18;97133.56;;;16.81;100.00
1401;BME280;46518;48.842;8.926;2023-09-19T08:53:57;97132.91;;;16.90;100.00
1401;BME280;46518;48.842;8.926;2023-09-19T08:56:29;97142.75;;;16.89;100.00
1401;BME280;46518;48.842;8.926;2023-09-19T08:59:00;97139.44;;;16.78;100.00
1401;BME280;46518;48.842;8.926;2023-09-19T09:01:31;97138.91;;;16.76;100.00
1401;BME280;46518;48.842;8.926;2023-09-19T09:04:01;97129.03;;;16.58;100.00
1401;BME280;46518;48.842;8.926;2023-09-19T09:06:29;97151.81;;;16.64;99.93
1401;BME280;46518;48.842;8.926;2023-09-19T09:09:01;97151.53;;;16.66;99.01
1401;BME280;46518;48.842;8.926;2023-09-19T09:11:33;97153.34;;;16.70;98.50
1401;BME280;46518;48.842;8.926;2023-09-19T09:14:01;97147.94;;;16.80;98.25
1401;BME280;46518;48.842;8.926;2023-09-19T09:16:30;97151.31;;;16.86;94.15
1401;BME280;46518;48.842;8.926;2023-09-19T09:18:58;97154.81;;;16.81;94.54
1401;BME280;46518;48.842;8.926;2023-09-19T09:21:27;97158.09;;;16.73;89.01
1401;BME280;46518;48.842;8.926;2023-09-19T09:23:55;97161.75;;;16.83;88.82
1401;BME280;46518;48.842;8.926;2023-09-19T09:26:43;97145.41;;;17.13;92.35
1401;BME280;46518;48.842;8.926;2023-09-19T09:29:11;97143.03;;;17.31;91.26
1401;BME280;46518;48.842;8.926;2023-09-19T09:31:48;97147.53;;;17.49;91.78
1401;BME280;46518;48.842;8.926;2023-09-19T09:34:16;97144.44;;;17.61;89.76
1401;BME280;46518;48.842;8.926;2023-09-19T09:36:48;97147.53;;;17.68;87.86
1401;BME280;46518;48.842;8.926;2023-09-19T09:39:30;97150.34;;;17.58;83.24
1401;BME280;46518;48.842;8.926;2023-09-19T09:42:00;97143.31;;;17.48;79.14
1401;BME280;46518;48.842;8.926;2023-09-19T09:44:33;97147.25;;;17.51;86.82
1401;BME280;46518;48.842;8.926;2023-09-19T09:47:02;97149.53;;;17.76;84.43
1401;BME280;46518;48.842;8.926;2023-09-19T09:49:50;97146.53;;;17.83;85.55
1401;BME280;46518;48.842;8.926;2023-09-19T09:52:44;97142.31;;;17.77;79.71
1401;BME280;46518;48.842;8.926;2023-09-19T09:55:13;97139.91;;;17.80;80.63
1401;BME280;46518;48.842;8.926;2023-09-19T09:57:42;97138.81;;;17.81;78.54
1401;BME280;46518;48.842;8.926;2023-09-19T10:00:11;97150.13;;;17.54;75.68
1401;BME280;46518;48.842;8.926;2023-09-19T10:02:50;97147.03;;;17.66;76.78
1401;BME280;46518;48.842;8.926;2023-09-19T10:05:20;97135.22;;;17.72;79.38
1401;BME280;46518;48.842;8.926;2023-09-19T10:08:10;97133.25;;;17.97;78.89
1401;BME280;46518;48.842;8.926;2023-09-19T10:10:40;97135.44;;;18.08;75.34
1401;BME280;46518;48.842;8.926;2023-09-19T10:13:25;97134.09;;;18.25;73.70
1401;BME280;46518;48.842;8.926;2023-09-19T10:15:55;97130.75;;;18.47;76.91
1401;BME280;46518;48.842;8.926;2023-09-19T10:18:26;97123.56;;;18.47;71.44
1401;BME280;46518;48.842;8.926;2023-09-19T10:20:57;97125.63;;;18.50;69.63
1401;BME280;46518;48.842;8.926;2023-09-19T10:23:27;97125.94;;;18.63;68.41
1401;BME280;46518;48.842;8.926;2023-09-19T10:25:57;97130.84;;;18.69;73.18
1401;BME280;46518;48.842;8.926;2023-09-19T10:28:30;97120.88;;;18.61;68.79
1401;BME280;46518;48.842;8.926;2023-09-19T10:31:03;97124.63;;;18.74;70.29
1401;BME280;46518;48.842;8.926;2023-09-19T10:33:36;97125.16;;;18.76;69.98
1401;BME280;46518;48.842;8.926;2023-09-19T10:36:05;97133.63;;;18.92;68.92
1401;BME280;46518;48.842;8.926;2023-09-19T10:38:37;97120.78;;;19.08;68.24
1401;BME280;46518;48.842;8.926;2023-09-19T10:41:08;97128.22;;;19.33;69.10
1401;BME280;46518;48.842;8.926;2023-09-19T10:43:40;97129.81;;;19.21;65.15
1401;BME280;46518;48.842;8.926;2023-09-19T10:46:12;97130.88;;;18.97;62.75
1401;BME280;46518;48.842;8.926;2023-09-19T10:48:41;97129.31;;;18.82;65.02
1401;BME280;46518;48.842;8.926;2023-09-19T10:51:13;97129.38;;;18.91;66.69
1401;BME280;46518;48.842;8.926;2023-09-19T10:53:47;97130.88;;;18.97;66.85
1401;BME280;46518;48.842;8.926;2023-09-19T10:56:21;97133.53;;;18.97;66.75
1401;BME280;46518;48.842;8.926;2023-09-19T10:58:51;97140.72;;;18.96;68.12
1401;BME280;46518;48.842;8.926;2023-09-19T11:01:19;97145.44;;;19.13;70.18
1401;BME280;46518;48.842;8.926;2023-09-19T11:04:21;97135.78;;;19.17;66.91
1401;BME280;46518;48.842;8.926;2023-09-19T11:07:03;97134.81;;;19.00;66.22
1401;BME280;46518;48.842;8.926;2023-09-19T11:09:49;97126.28;;;19.11;70.93
1401;BME280;46518;48.842;8.926;2023-09-19T11:12:48;97129.09;;;19.29;69.38
1401;BME280;46518;48.842;8.926;2023-09-19T11:18:52;97133.41;;;19.52;65.74
1401;BME280;46518;48.842;8.926;2023-09-19T11:21:41;97124.16;;;19.36;67.55
1401;BME280;46518;48.842;8.926;2023-09-19T11:24:28;97122.94;;;19.42;68.39
1401;BME280;46518;48.842;8.926;2023-09-19T11:27:12;97121.63;;;19.53;71.98
1401;BME280;46518;48.842;8.926;2023-09-19T11:29:41;97116.72;;;19.69;73.00
1401;BME280;46518;48.842;8.926;2023-09-19T11:32:10;97117.94;;;19.86;67.77
1401;BME280;46518;48.842;8.926;2023-09-19T11:34:44;97111.81;;;19.85;66.58
1401;BME280;46518;48.842;8.926;2023-09-19T11:40:46;97111.81;;;19.85;64.46
1401;BME280;46518;48.842;8.926;2023-09-19T11:43:30;97122.25;;;19.95;67.23
1401;BME280;46518;48.842;8.926;2023-09-19T11:46:05;97105.91;;;19.97;62.24
1401;BME280;46518;48.842;8.926;2023-09-19T11:48:39;97111.25;;;19.97;61.60
1401;BME280;46518;48.842;8.926;2023-09-19T11:51:15;97109.78;;;19.91;57.01
1401;BME280;46518;48.842;8.926;2023-09-19T11:53:51;97101.66;;;19.96;59.45
1401;BME280;46518;48.842;8.926;2023-09-19T11:56:20;97096.53;;;20.08;58.83
1401;BME280;46518;48.842;8.926;2023-09-19T11:58:51;97103.13;;;20.02;56.76
1401;BME280;46518;48.842;8.926;2023-09-19T12:01:28;97097.34;;;19.86;56.59
1401;BME280;46518;48.842;8.926;2023-09-19T12:04:00;97102.19;;;19.84;57.86
1401;BME280;46518;48.842;8.926;2023-09-19T12:06:30;97096.22;;;19.78;56.84
1401;BME280;46518;48.842;8.926;2023-09-19T12:08:59;97093.50;;;19.70;56.10
1401;BME280;46518;48.842;8.926;2023-09-19T12:11:30;97084.31;;;19.85;56.71
1401;BME280;46518;48.842;8.926;2023-09-19T12:14:01;97085.63;;;19.96;59.00
1401;BME280;46518;48.842;8.926;2023-09-19T12:16:31;97086.84;;;20.21;59.56
1401;BME280;46518;48.842;8.926;2023-09-19T12:19:19;97075.50;;;20.55;62.05
1401;BME280;46518;48.842;8.926;2023-09-19T12:21:58;97073.84;;;20.85;58.24
1401;BME280;46518;48.842;8.926;2023-09-19T12:24:32;97066.94;;;20.93;52.26
1401;BME280;46518;48.842;8.926;2023-09-19T12:27:03;97066.75;;;20.81;54.13
1401;BME280;46518;48.842;8.926;2023-09-19T12:29:42;97067.69;;;20.76;51.29
1401;BME280;46518;48.842;8.926;2023-09-19T12:32:11;97066.28;;;20.79;55.26
1401;BME280;46518;48.842;8.926;2023-09-19T12:34:39;97070.69;;;20.83;53.39
1401;BME280;46518;48.842;8.926;2023-09-19T12:37:13;97063.47;;;20.93;55.22
1401;BME280;46518;48.842;8.926;2023-09-19T12:39:48;97063.91;;;20.68;53.99
1401;BME280;46518;48.842;8.926;2023-09-19T12:42:19;97066.25;;;20.61;51.92
1401;BME280;46518;48.842;8.926;2023-09-19T12:44:49;97056.50;;;20.74;52.54
1401;BME280;46518;48.842;8.926;2023-09-19T12:47:23;97057.31;;;20.75;53.21
1401;BME280;46518;48.842;8.926;2023-09-19T12:50:09;97052.31;;;20.99;57.28
1401;BME280;46518;48.842;8.926;2023-09-19T12:52:47;97059.72;;;21.20;54.48
1401;BME280;46518;48.842;8.926;2023-09-19T12:55:20;97049.59;;;21.17;52.38
1401;BME280;46518;48.842;8.926;2023-09-19T12:58:00;97057.34;;;21.27;54.97
1401;BME280;46518;48.842;8.926;2023-09-19T13:00:34;97055.44;;;21.36;53.28
1401;BME280;46518;48.842;8.926;2023-09-19T13:03:17;97049.78;;;21.38;49.07
1401;BME280;46518;48.842;8.926;2023-09-19T13:05:50;97050.25;;;20.96;51.66
1401;BME280;46518;48.842;8.926;2023-09-19T13:08:26;97043.63;;;20.76;51.11
1401;BME280;46518;48.842;8.926;2023-09-19T13:11:03;97057.78;;;20.77;54.42
1401;BME280;46518;48.842;8.926;2023-09-19T13:13:34;97045.59;;;20.53;53.30
1401;BME280;46518;48.842;8.926;2023-09-19T13:16:03;97048.94;;;20.59;53.48
1401;BME280;46518;48.842;8.926;2023-09-19T13:18:42;97047.00;;;20.51;54.06
1401;BME280;46518;48.842;8.926;2023-09-19T13:21:12;97046.91;;;20.64;54.97
1401;BME280;46518;48.842;8.926;2023-09-19T13:23:51;97041.41;;;20.78;55.15
1401;BME280;46518;48.842;8.926;2023-09-19T13:26:21;97041.72;;;20.94;54.63
1401;BME280;46518;48.842;8.926;2023-09-19T13:28:49;97045.22;;;21.12;54.29
1401;BME280;46518;48.842;8.926;2023-09-19T13:31:18;97038.78;;;21.04;51.28
1401;BME280;46518;48.842;8.926;2023-09-19T13:33:48;97040.63;;;20.78;50.53
1401;BME280;46518;48.842;8.926;2023-09-19T13:36:17;97034.69;;;20.89;51.14
1401;BME280;46518;48.842;8.926;2023-09-19T13:38:45;97024.13;;;20.84;51.75
1401;BME280;46518;48.842;8.926;2023-09-19T13:41:17;97033.09;;;20.80;50.80